sensor_id;sensor_type;location;lat;lon;timestamp;temperature;humidity
10868;DHT22;62667;48.698;8.762;2023-12-20T00:00:35;6.40;79.00
10868;DHT22;62667;48.698;8.762;2023-12-20T00:03:03;6.40;78.50
10868;DHT22;62667;48.698;8.762;2023-12-20T00:05:31;6.50;77.20
10868;DHT22;62667;48.698;8.762;2023-12-20T00:07:59;6.50;77.30
10868;DHT22;62667;48.698;8.762;2023-12-20T00:10:26;6.60;76.30
10868;DHT22;62667;48.698;8.762;2023-12-20T00:12:54;6.70;76.20
10868;DHT22;62667;48.698;8.762;2023-12-20T00:15:21;6.70;77.00
10868;DHT22;62667;48.698;8.762;2023-12-20T00:17:48;6.70;76.90
10868;DHT22;62667;48.698;8.762;2023-12-20T00:20:16;6.80;76.50
10868;DHT22;62667;48.698;8.762;2023-12-20T00:22:43;6.80;76.80
10868;DHT22;62667;48.698;8.762;2023-12-20T00:25:10;6.80;77.00
10868;DHT22;62667;48.698;8.762;2023-12-20T00:27:37;6.60;78.30
10868;DHT22;62667;48.698;8.762;2023-12-20T00:30:08;6.60;78.60
10868;DHT22;62667;48.698;8.762;2023-12-20T00:32:35;6.60;79.30
10868;DHT22;62667;48.698;8.762;2023-12-20T00:35:03;6.60;79.20
10868;DHT22;62667;48.698;8.762;2023-12-20T00:37:33;6.40;80.00
10868;DHT22;62667;48.698;8.762;2023-12-20T00:40:00;6.40;81.00
10868;DHT22;62667;48.698;8.762;2023-12-20T00:42:27;6.40;81.00
10868;DHT22;62667;48.698;8.762;2023-12-20T00:44:54;6.40;80.80
10868;DHT22;62667;48.698;8.762;2023-12-20T00:47:22;6.40;81.40
10868;DHT22;62667;48.698;8.762;2023-12-20T00:49:49;6.40;80.40
10868;DHT22;62667;48.698;8.762;2023-12-20T00:52:16;6.40;81.00
10868;DHT22;62667;48.698;8.762;2023-12-20T00:54:44;6.50;81.70
10868;DHT22;62667;48.698;8.762;2023-12-20T00:57:11;6.50;80.60
10868;DHT22;62667;48.698;8.762;2023-12-20T00:59:38;6.50;80.50
10868;DHT22;62667;48.698;8.762;2023-12-20T01:02:05;6.50;81.10
10868;DHT22;62667;48.698;8.762;2023-12-20T01:04:34;6.50;80.90
10868;DHT22;62667;48.698;8.762;2023-12-20T01:07:01;6.40;81.40
10868;DHT22;62667;48.698;8.762;2023-12-20T01:09:28;6.30;82.00
10868;DHT22;62667;48.698;8.762;2023-12-20T01:11:55;6.30;83.10
10868;DHT22;62667;48.698;8.762;2023-12-20T01:14:22;6.20;83.10
10868;DHT22;62667;48.698;8.762;2023-12-20T01:16:49;6.30;98.60
10868;DHT22;62667;48.698;8.762;2023-12-20T01:19:16;6.40;86.30
10868;DHT22;62667;48.698;8.762;2023-12-20T01:21:45;6.30;85.50
10868;DHT22;62667;48.698;8.762;2023-12-20T01:24:12;6.30;99.90
10868;DHT22;62667;48.698;8.762;2023-12-20T01:26:39;6.50;97.20
10868;DHT22;62667;48.698;8.762;2023-12-20T01:29:06;6.50;90.70
10868;DHT22;62667;48.698;8.762;2023-12-20T01:31:33;6.50;88.90
10868;DHT22;62667;48.698;8.762;2023-12-20T01:34:00;6.60;85.50
10868;DHT22;62667;48.698;8.762;2023-12-20T01:36:27;6.50;81.30
10868;DHT22;62667;48.698;8.762;2023-12-20T01:38:56;6.50;80.80
10868;DHT22;62667;48.698;8.762;2023-12-20T01:41:23;6.50;81.10
10868;DHT22;62667;48.698;8.762;2023-12-20T01:43:50;6.50;80.60
10868;DHT22;62667;48.698;8.762;2023-12-20T01:46:19;6.50;81.60
10868;DHT22;62667;48.698;8.762;2023-12-20T01:48:47;6.50;81.40
10868;DHT22;62667;48.698;8.762;2023-12-20T01:51:15;6.50;81.90
10868;DHT22;62667;48.698;8.762;2023-12-20T01:53:43;6.50;80.40
10868;DHT22;62667;48.698;8.762;2023-12-20T01:56:12;6.50;80.60
10868;DHT22;62667;48.698;8.762;2023-12-20T01:58:45;6.50;81.10
10868;DHT22;62667;48.698;8.762;2023-12-20T02:01:14;6.50;80.00
10868;DHT22;62667;48.698;8.762;2023-12-20T02:03:41;6.40;80.10
10868;DHT22;62667;48.698;8.762;2023-12-20T02:06:09;6.40;79.80
10868;DHT22;62667;48.698;8.762;2023-12-20T02:08:36;6.50;79.90
10868;DHT22;62667;48.698;8.762;2023-12-20T02:11:04;6.40;80.20
10868;DHT22;62667;48.698;8.762;2023-12-20T02:13:32;6.30;80.30
10868;DHT22;62667;48.698;8.762;2023-12-20T02:16:00;6.40;80.40
10868;DHT22;62667;48.698;8.762;2023-12-20T02:18:28;6.40;80.00
10868;DHT22;62667;48.698;8.762;2023-12-20T02:20:55;6.30;79.50
10868;DHT22;62667;48.698;8.762;2023-12-20T02:23:23;6.30;79.50
10868;DHT22;62667;48.698;8.762;2023-12-20T02:25:51;6.30;79.50
10868;DHT22;62667;48.698;8.762;2023-12-20T02:28:18;6.30;78.10
10868;DHT22;62667;48.698;8.762;2023-12-20T02:30:47;6.30;78.90
10868;DHT22;62667;48.698;8.762;2023-12-20T02:33:15;6.30;79.50
10868;DHT22;62667;48.698;8.762;2023-12-20T02:35:43;6.20;80.60
10868;DHT22;62667;48.698;8.762;2023-12-20T02:38:10;6.20;80.10
10868;DHT22;62667;48.698;8.762;2023-12-20T02:40:38;6.20;79.40
10868;DHT22;62667;48.698;8.762;2023-12-20T02:43:05;6.20;79.10
10868;DHT22;62667;48.698;8.762;2023-12-20T02:45:32;6.10;78.70
10868;DHT22;62667;48.698;8.762;2023-12-20T02:47:59;6.10;79.30
10868;DHT22;62667;48.698;8.762;2023-12-20T02:50:26;6.10;79.50
10868;DHT22;62667;48.698;8.762;2023-12-20T02:52:53;6.10;80.10
10868;DHT22;62667;48.698;8.762;2023-12-20T02:55:20;6.10;79.60
10868;DHT22;62667;48.698;8.762;2023-12-20T02:57:49;6.10;80.30
10868;DHT22;62667;48.698;8.762;2023-12-20T03:00:16;6.10;79.70
10868;DHT22;62667;48.698;8.762;2023-12-20T03:02:43;6.10;78.70
10868;DHT22;62667;48.698;8.762;2023-12-20T03:05:10;6.10;79.30
10868;DHT22;62667;48.698;8.762;2023-12-20T03:07:37;6.00;79.40
10868;DHT22;62667;48.698;8.762;2023-12-20T03:10:05;6.00;79.70
10868;DHT22;62667;48.698;8.762;2023-12-20T03:12:34;6.00;80.30
10868;DHT22;62667;48.698;8.762;2023-12-20T03:15:03;6.00;81.00
10868;DHT22;62667;48.698;8.762;2023-12-20T03:17:31;5.90;82.40
10868;DHT22;62667;48.698;8.762;2023-12-20T03:19:58;5.80;83.20
10868;DHT22;62667;48.698;8.762;2023-12-20T03:22:25;5.80;83.30
10868;DHT22;62667;48.698;8.762;2023-12-20T03:24:52;5.90;82.60
10868;DHT22;62667;48.698;8.762;2023-12-20T03:27:19;5.80;82.50
10868;DHT22;62667;48.698;8.762;2023-12-20T03:29:46;5.70;84.10
10868;DHT22;62667;48.698;8.762;2023-12-20T03:32:14;5.60;84.50
10868;DHT22;62667;48.698;8.762;2023-12-20T03:34:41;5.60;85.50
10868;DHT22;62667;48.698;8.762;2023-12-20T03:37:07;5.70;86.50
10868;DHT22;62667;48.698;8.762;2023-12-20T03:39:34;5.60;83.40
10868;DHT22;62667;48.698;8.762;2023-12-20T03:42:01;5.60;84.30
10868;DHT22;62667;48.698;8.762;2023-12-20T03:44:29;5.60;82.90
10868;DHT22;62667;48.698;8.762;2023-12-20T03:46:56;5.60;83.20
10868;DHT22;62667;48.698;8.762;2023-12-20T03:49:24;5.60;83.80
10868;DHT22;62667;48.698;8.762;2023-12-20T03:51:51;5.50;83.10
10868;DHT22;62667;48.698;8.762;2023-12-20T03:54:18;5.50;83.50
10868;DHT22;62667;48.698;8.762;2023-12-20T03:56:45;5.50;83.20
10868;DHT22;62667;48.698;8.762;2023-12-20T03:59:12;5.50;82.20
10868;DHT22;62667;48.698;8.762;2023-12-20T04:01:43;5.50;81.20
10868;DHT22;62667;48.698;8.762;2023-12-20T04:04:11;5.50;82.60
10868;DHT22;62667;48.698;8.762;2023-12-20T04:06:40;5.40;81.90
10868;DHT22;62667;48.698;8.762;2023-12-20T04:09:07;5.40;82.60
10868;DHT22;62667;48.698;8.762;2023-12-20T04:11:34;5.40;83.40
10868;DHT22;62667;48.698;8.762;2023-12-20T04:14:01;5.40;82.80
10868;DHT22;62667;48.698;8.762;2023-12-20T04:16:30;5.30;83.10
10868;DHT22;62667;48.698;8.762;2023-12-20T04:18:57;5.40;82.30
10868;DHT22;62667;48.698;8.762;2023-12-20T04:21:24;5.30;82.00
10868;DHT22;62667;48.698;8.762;2023-12-20T04:23:52;5.40;79.80
10868;DHT22;62667;48.698;8.762;2023-12-20T04:26:19;5.40;80.50
10868;DHT22;62667;48.698;8.762;2023-12-20T04:28:46;5.30;81.20
10868;DHT22;62667;48.698;8.762;2023-12-20T04:31:13;5.20;81.70
10868;DHT22;62667;48.698;8.762;2023-12-20T04:33:41;5.20;81.00
10868;DHT22;62667;48.698;8.762;2023-12-20T04:36:08;5.30;83.20
10868;DHT22;62667;48.698;8.762;2023-12-20T04:38:35;5.30;81.30
10868;DHT22;62667;48.698;8.762;2023-12-20T04:41:04;5.30;81.10
10868;DHT22;62667;48.698;8.762;2023-12-20T04:43:31;5.30;80.70
10868;DHT22;62667;48.698;8.762;2023-12-20T04:45:58;5.40;80.40
10868;DHT22;62667;48.698;8.762;2023-12-20T04:48:25;5.40;80.60
10868;DHT22;62667;48.698;8.762;2023-12-20T04:50:52;5.40;80.50
10868;DHT22;62667;48.698;8.762;2023-12-20T04:53:19;5.40;81.00
10868;DHT22;62667;48.698;8.762;2023-12-20T04:55:46;5.40;80.50
10868;DHT22;62667;48.698;8.762;2023-12-20T04:58:15;5.30;80.90
10868;DHT22;62667;48.698;8.762;2023-12-20T05:00:42;5.40;81.00
10868;DHT22;62667;48.698;8.762;2023-12-20T05:03:09;5.40;81.20
10868;DHT22;62667;48.698;8.762;2023-12-20T05:05:36;5.40;81.10
10868;DHT22;62667;48.698;8.762;2023-12-20T05:08:03;5.40;81.10
10868;DHT22;62667;48.698;8.762;2023-12-20T05:10:30;5.40;81.30
10868;DHT22;62667;48.698;8.762;2023-12-20T05:12:57;5.40;82.10
10868;DHT22;62667;48.698;8.762;2023-12-20T05:15:26;5.40;82.60
10868;DHT22;62667;48.698;8.762;2023-12-20T05:17:53;5.40;83.50
10868;DHT22;62667;48.698;8.762;2023-12-20T05:20:20;5.40;84.00
10868;DHT22;62667;48.698;8.762;2023-12-20T05:22:47;5.30;84.80
10868;DHT22;62667;48.698;8.762;2023-12-20T05:25:14;5.20;85.40
10868;DHT22;62667;48.698;8.762;2023-12-20T05:27:41;5.30;85.40
10868;DHT22;62667;48.698;8.762;2023-12-20T05:30:09;5.30;85.70
10868;DHT22;62667;48.698;8.762;2023-12-20T05:32:40;5.40;85.10
10868;DHT22;62667;48.698;8.762;2023-12-20T05:35:07;5.40;85.50
10868;DHT22;62667;48.698;8.762;2023-12-20T05:37:35;5.50;85.60
10868;DHT22;62667;48.698;8.762;2023-12-20T05:40:02;5.40;85.80
10868;DHT22;62667;48.698;8.762;2023-12-20T05:42:29;5.50;86.20
10868;DHT22;62667;48.698;8.762;2023-12-20T05:44:56;5.50;85.20
10868;DHT22;62667;48.698;8.762;2023-12-20T05:47:23;5.60;85.10
10868;DHT22;62667;48.698;8.762;2023-12-20T05:49:52;5.50;85.70
10868;DHT22;62667;48.698;8.762;2023-12-20T05:52:19;5.50;86.60
10868;DHT22;62667;48.698;8.762;2023-12-20T05:54:46;5.50;86.50
10868;DHT22;62667;48.698;8.762;2023-12-20T05:57:13;5.50;86.20
10868;DHT22;62667;48.698;8.762;2023-12-20T05:59:40;5.50;86.90
10868;DHT22;62667;48.698;8.762;2023-12-20T06:02:08;5.50;86.80
10868;DHT22;62667;48.698;8.762;2023-12-20T06:04:35;5.50;87.00
10868;DHT22;62667;48.698;8.762;2023-12-20T06:07:03;5.50;87.60
10868;DHT22;62667;48.698;8.762;2023-12-20T06:09:30;5.50;86.80
10868;DHT22;62667;48.698;8.762;2023-12-20T06:11:57;5.40;87.50
10868;DHT22;62667;48.698;8.762;2023-12-20T06:14:24;5.40;87.90
10868;DHT22;62667;48.698;8.762;2023-12-20T06:16:51;5.30;89.40
10868;DHT22;62667;48.698;8.762;2023-12-20T06:19:18;5.30;88.90
10868;DHT22;62667;48.698;8.762;2023-12-20T06:24:14;5.30;88.00
10868;DHT22;62667;48.698;8.762;2023-12-20T06:29:09;5.40;86.90
10868;DHT22;62667;48.698;8.762;2023-12-20T06:31:36;5.40;86.50
10868;DHT22;62667;48.698;8.762;2023-12-20T06:34:03;5.30;87.60
10868;DHT22;62667;48.698;8.762;2023-12-20T06:36:30;5.50;87.60
10868;DHT22;62667;48.698;8.762;2023-12-20T06:38:57;5.50;87.10
10868;DHT22;62667;48.698;8.762;2023-12-20T06:41:26;5.40;87.40
10868;DHT22;62667;48.698;8.762;2023-12-20T06:43:53;5.40;87.60
10868;DHT22;62667;48.698;8.762;2023-12-20T06:46:20;5.40;88.00
10868;DHT22;62667;48.698;8.762;2023-12-20T06:48:47;5.40;88.60
10868;DHT22;62667;48.698;8.762;2023-12-20T06:51:15;5.30;89.20
10868;DHT22;62667;48.698;8.762;2023-12-20T06:53:43;5.30;89.40
10868;DHT22;62667;48.698;8.762;2023-12-20T06:56:11;5.30;89.60
10868;DHT22;62667;48.698;8.762;2023-12-20T06:58:40;5.30;89.30
10868;DHT22;62667;48.698;8.762;2023-12-20T07:01:11;5.30;89.90
10868;DHT22;62667;48.698;8.762;2023-12-20T07:03:38;5.30;90.00
10868;DHT22;62667;48.698;8.762;2023-12-20T07:06:05;5.20;90.10
10868;DHT22;62667;48.698;8.762;2023-12-20T07:08:33;5.20;88.50
10868;DHT22;62667;48.698;8.762;2023-12-20T07:11:00;5.20;89.20
10868;DHT22;62667;48.698;8.762;2023-12-20T07:13:27;5.20;88.10
10868;DHT22;62667;48.698;8.762;2023-12-20T07:15:55;5.30;88.40
10868;DHT22;62667;48.698;8.762;2023-12-20T07:18:22;5.20;88.10
10868;DHT22;62667;48.698;8.762;2023-12-20T07:20:49;5.20;89.00
10868;DHT22;62667;48.698;8.762;2023-12-20T07:23:16;5.30;89.30
10868;DHT22;62667;48.698;8.762;2023-12-20T07:25:45;5.20;89.40
10868;DHT22;62667;48.698;8.762;2023-12-20T07:28:12;5.20;89.10
10868;DHT22;62667;48.698;8.762;2023-12-20T07:30:39;5.20;89.70
10868;DHT22;62667;48.698;8.762;2023-12-20T07:33:07;5.20;89.70
10868;DHT22;62667;48.698;8.762;2023-12-20T07:35:35;5.20;89.20
10868;DHT22;62667;48.698;8.762;2023-12-20T07:38:03;5.20;89.50
10868;DHT22;62667;48.698;8.762;2023-12-20T07:40:30;5.20;90.50
10868;DHT22;62667;48.698;8.762;2023-12-20T07:42:57;5.30;89.70
10868;DHT22;62667;48.698;8.762;2023-12-20T07:45:24;5.20;90.20
10868;DHT22;62667;48.698;8.762;2023-12-20T07:50:20;6.10;99.90
10868;DHT22;62667;48.698;8.762;2023-12-20T07:52:47;5.30;94.10
10868;DHT22;62667;48.698;8.762;2023-12-20T07:55:14;5.30;89.90
10868;DHT22;62667;48.698;8.762;2023-12-20T07:57:41;5.30;90.40
10868;DHT22;62667;48.698;8.762;2023-12-20T08:00:09;5.30;90.00
10868;DHT22;62667;48.698;8.762;2023-12-20T08:02:37;5.30;90.00
10868;DHT22;62667;48.698;8.762;2023-12-20T08:05:05;5.20;89.30
10868;DHT22;62667;48.698;8.762;2023-12-20T08:07:33;5.30;90.30
10868;DHT22;62667;48.698;8.762;2023-12-20T08:10:00;5.20;92.00
10868;DHT22;62667;48.698;8.762;2023-12-20T08:12:27;5.10;87.20
10868;DHT22;62667;48.698;8.762;2023-12-20T08:17:22;5.00;87.20
10868;DHT22;62667;48.698;8.762;2023-12-20T08:19:50;4.90;83.60
10868;DHT22;62667;48.698;8.762;2023-12-20T08:22:18;4.80;82.40
10868;DHT22;62667;48.698;8.762;2023-12-20T08:24:46;4.80;84.10
10868;DHT22;62667;48.698;8.762;2023-12-20T08:27:13;4.70;81.80
10868;DHT22;62667;48.698;8.762;2023-12-20T08:29:41;4.70;82.80
10868;DHT22;62667;48.698;8.762;2023-12-20T08:32:10;4.70;84.10
10868;DHT22;62667;48.698;8.762;2023-12-20T08:34:37;4.60;82.30
10868;DHT22;62667;48.698;8.762;2023-12-20T08:39:32;4.50;99.90
10868;DHT22;62667;48.698;8.762;2023-12-20T08:42:00;4.60;92.70
10868;DHT22;62667;48.698;8.762;2023-12-20T08:44:27;4.50;81.00
10868;DHT22;62667;48.698;8.762;2023-12-20T08:46:55;4.40;80.00
10868;DHT22;62667;48.698;8.762;2023-12-20T08:49:22;4.40;80.50
10868;DHT22;62667;48.698;8.762;2023-12-20T08:51:53;4.30;81.40
10868;DHT22;62667;48.698;8.762;2023-12-20T08:54:23;4.30;81.40
10868;DHT22;62667;48.698;8.762;2023-12-20T08:56:50;4.30;82.20
10868;DHT22;62667;48.698;8.762;2023-12-20T08:59:19;4.30;82.80
10868;DHT22;62667;48.698;8.762;2023-12-20T09:01:46;4.40;80.50
10868;DHT22;62667;48.698;8.762;2023-12-20T09:04:14;4.40;80.90
10868;DHT22;62667;48.698;8.762;2023-12-20T09:06:41;4.50;80.30
10868;DHT22;62667;48.698;8.762;2023-12-20T09:09:08;4.70;79.00
10868;DHT22;62667;48.698;8.762;2023-12-20T09:11:39;4.70;79.10
10868;DHT22;62667;48.698;8.762;2023-12-20T09:14:06;4.60;78.40
10868;DHT22;62667;48.698;8.762;2023-12-20T09:16:34;4.70;78.50
10868;DHT22;62667;48.698;8.762;2023-12-20T09:19:01;4.80;77.80
10868;DHT22;62667;48.698;8.762;2023-12-20T09:21:29;4.90;76.20
10868;DHT22;62667;48.698;8.762;2023-12-20T09:23:56;4.90;75.50
10868;DHT22;62667;48.698;8.762;2023-12-20T09:26:23;5.00;75.20
10868;DHT22;62667;48.698;8.762;2023-12-20T09:28:50;5.00;74.30
10868;DHT22;62667;48.698;8.762;2023-12-20T09:31:17;5.10;85.70
10868;DHT22;62667;48.698;8.762;2023-12-20T09:33:46;5.10;73.80
10868;DHT22;62667;48.698;8.762;2023-12-20T09:36:13;5.20;73.60
10868;DHT22;62667;48.698;8.762;2023-12-20T09:38:40;5.40;73.80
10868;DHT22;62667;48.698;8.762;2023-12-20T09:41:10;5.50;71.50
10868;DHT22;62667;48.698;8.762;2023-12-20T09:43:38;5.50;71.00
10868;DHT22;62667;48.698;8.762;2023-12-20T09:46:06;5.40;70.90
10868;DHT22;62667;48.698;8.762;2023-12-20T09:48:34;5.40;70.60
10868;DHT22;62667;48.698;8.762;2023-12-20T09:51:04;5.30;69.20
10868;DHT22;62667;48.698;8.762;2023-12-20T09:53:33;5.20;70.70
10868;DHT22;62667;48.698;8.762;2023-12-20T09:56:06;5.00;70.00
10868;DHT22;62667;48.698;8.762;2023-12-20T09:58:36;5.00;70.40
10868;DHT22;62667;48.698;8.762;2023-12-20T10:01:06;5.10;70.60
10868;DHT22;62667;48.698;8.762;2023-12-20T10:03:34;5.20;69.60
10868;DHT22;62667;48.698;8.762;2023-12-20T10:06:01;5.10;69.10
10868;DHT22;62667;48.698;8.762;2023-12-20T10:08:30;5.20;69.00
10868;DHT22;62667;48.698;8.762;2023-12-20T10:10:58;5.10;69.60
10868;DHT22;62667;48.698;8.762;2023-12-20T10:13:29;5.10;67.20
10868;DHT22;62667;48.698;8.762;2023-12-20T10:15:56;5.00;67.70
10868;DHT22;62667;48.698;8.762;2023-12-20T10:18:24;5.10;69.50
10868;DHT22;62667;48.698;8.762;2023-12-20T10:20:51;4.90;70.50
10868;DHT22;62667;48.698;8.762;2023-12-20T10:23:20;5.00;70.30
10868;DHT22;62667;48.698;8.762;2023-12-20T10:25:56;5.10;70.70
10868;DHT22;62667;48.698;8.762;2023-12-20T10:28:24;5.20;68.90
10868;DHT22;62667;48.698;8.762;2023-12-20T10:30:53;5.40;67.40
10868;DHT22;62667;48.698;8.762;2023-12-20T10:33:26;5.30;65.50
10868;DHT22;62667;48.698;8.762;2023-12-20T10:35:54;5.20;66.00
10868;DHT22;62667;48.698;8.762;2023-12-20T10:38:23;5.20;66.70
10868;DHT22;62667;48.698;8.762;2023-12-20T10:40:55;5.20;66.90
10868;DHT22;62667;48.698;8.762;2023-12-20T10:43:24;5.20;68.70
10868;DHT22;62667;48.698;8.762;2023-12-20T10:45:53;5.20;67.70
10868;DHT22;62667;48.698;8.762;2023-12-20T10:48:20;5.20;67.70
10868;DHT22;62667;48.698;8.762;2023-12-20T10:50:55;5.30;66.20
10868;DHT22;62667;48.698;8.762;2023-12-20T10:53:25;5.40;65.70
10868;DHT22;62667;48.698;8.762;2023-12-20T10:55:52;5.40;64.80
10868;DHT22;62667;48.698;8.762;2023-12-20T10:58:22;5.50;64.80
10868;DHT22;62667;48.698;8.762;2023-12-20T11:00:58;5.50;63.60
10868;DHT22;62667;48.698;8.762;2023-12-20T11:03:28;5.50;63.50
10868;DHT22;62667;48.698;8.762;2023-12-20T11:06:03;5.60;65.80
10868;DHT22;62667;48.698;8.762;2023-12-20T11:08:47;5.60;62.70
10868;DHT22;62667;48.698;8.762;2023-12-20T11:11:25;5.40;63.30
10868;DHT22;62667;48.698;8.762;2023-12-20T11:14:01;5.40;63.90
10868;DHT22;62667;48.698;8.762;2023-12-20T11:16:31;5.40;62.90
10868;DHT22;62667;48.698;8.762;2023-12-20T11:19:04;5.40;62.20
10868;DHT22;62667;48.698;8.762;2023-12-20T11:21:32;5.00;60.10
10868;DHT22;62667;48.698;8.762;2023-12-20T11:24:02;5.10;61.10
10868;DHT22;62667;48.698;8.762;2023-12-20T11:26:31;5.00;61.20
10868;DHT22;62667;48.698;8.762;2023-12-20T11:29:32;5.10;62.30
10868;DHT22;62667;48.698;8.762;2023-12-20T11:32:04;5.10;61.60
10868;DHT22;62667;48.698;8.762;2023-12-20T11:34:55;5.10;61.30
10868;DHT22;62667;48.698;8.762;2023-12-20T11:37:28;4.90;64.00
10868;DHT22;62667;48.698;8.762;2023-12-20T11:40:05;4.90;64.70
10868;DHT22;62667;48.698;8.762;2023-12-20T11:42:38;4.90;65.30
10868;DHT22;62667;48.698;8.762;2023-12-20T11:45:08;5.00;65.70
10868;DHT22;62667;48.698;8.762;2023-12-20T11:47:36;5.20;65.00
10868;DHT22;62667;48.698;8.762;2023-12-20T11:50:05;5.30;63.20
10868;DHT22;62667;48.698;8.762;2023-12-20T11:52:33;5.40;63.50
10868;DHT22;62667;48.698;8.762;2023-12-20T11:55:01;5.50;62.50
10868;DHT22;62667;48.698;8.762;2023-12-20T11:57:29;5.30;63.20
10868;DHT22;62667;48.698;8.762;2023-12-20T11:59:56;5.20;63.40
10868;DHT22;62667;48.698;8.762;2023-12-20T12:02:23;5.30;62.50
10868;DHT22;62667;48.698;8.762;2023-12-20T12:04:51;5.20;63.00
10868;DHT22;62667;48.698;8.762;2023-12-20T12:07:18;5.20;62.40
10868;DHT22;62667;48.698;8.762;2023-12-20T12:09:45;5.30;62.10
10868;DHT22;62667;48.698;8.762;2023-12-20T12:12:15;5.40;61.90
10868;DHT22;62667;48.698;8.762;2023-12-20T12:14:42;5.40;61.60
10868;DHT22;62667;48.698;8.762;2023-12-20T12:17:10;5.20;62.50
10868;DHT22;62667;48.698;8.762;2023-12-20T12:19:38;5.50;62.50
10868;DHT22;62667;48.698;8.762;2023-12-20T12:22:06;5.60;61.80
10868;DHT22;62667;48.698;8.762;2023-12-20T12:24:38;5.60;60.80
10868;DHT22;62667;48.698;8.762;2023-12-20T12:27:08;5.40;60.30
10868;DHT22;62667;48.698;8.762;2023-12-20T12:29:37;5.30;60.70
10868;DHT22;62667;48.698;8.762;2023-12-20T12:32:05;5.30;61.30
10868;DHT22;62667;48.698;8.762;2023-12-20T12:34:33;5.50;59.60
10868;DHT22;62667;48.698;8.762;2023-12-20T12:37:00;5.70;60.30
10868;DHT22;62667;48.698;8.762;2023-12-20T12:39:29;5.40;60.30
10868;DHT22;62667;48.698;8.762;2023-12-20T12:41:57;5.60;61.00
10868;DHT22;62667;48.698;8.762;2023-12-20T12:44:26;5.70;59.30
10868;DHT22;62667;48.698;8.762;2023-12-20T12:46:54;5.60;60.30
10868;DHT22;62667;48.698;8.762;2023-12-20T12:49:22;5.60;60.10
10868;DHT22;62667;48.698;8.762;2023-12-20T12:51:49;5.60;60.50
10868;DHT22;62667;48.698;8.762;2023-12-20T12:54:17;5.50;59.90
10868;DHT22;62667;48.698;8.762;2023-12-20T12:56:45;5.50;60.60
10868;DHT22;62667;48.698;8.762;2023-12-20T12:59:13;5.50;60.20
10868;DHT22;62667;48.698;8.762;2023-12-20T13:01:40;5.60;61.20
10868;DHT22;62667;48.698;8.762;2023-12-20T13:04:09;6.00;61.00
10868;DHT22;62667;48.698;8.762;2023-12-20T13:06:37;6.40;58.90
10868;DHT22;62667;48.698;8.762;2023-12-20T13:09:04;6.60;58.00
10868;DHT22;62667;48.698;8.762;2023-12-20T13:11:31;6.60;57.60
10868;DHT22;62667;48.698;8.762;2023-12-20T13:13:59;6.40;56.50
10868;DHT22;62667;48.698;8.762;2023-12-20T13:16:26;6.20;57.10
10868;DHT22;62667;48.698;8.762;2023-12-20T13:18:53;6.30;58.20
10868;DHT22;62667;48.698;8.762;2023-12-20T13:21:23;6.50;56.20
10868;DHT22;62667;48.698;8.762;2023-12-20T13:23:50;7.50;55.70
10868;DHT22;62667;48.698;8.762;2023-12-20T13:28:45;7.50;50.40
10868;DHT22;62667;48.698;8.762;2023-12-20T13:31:12;7.20;52.10
10868;DHT22;62667;48.698;8.762;2023-12-20T13:33:39;6.50;54.70
10868;DHT22;62667;48.698;8.762;2023-12-20T13:36:07;6.30;57.00
10868;DHT22;62667;48.698;8.762;2023-12-20T13:38:36;6.20;58.50
10868;DHT22;62667;48.698;8.762;2023-12-20T13:41:03;6.00;59.00
10868;DHT22;62667;48.698;8.762;2023-12-20T13:43:31;7.40;55.00
10868;DHT22;62667;48.698;8.762;2023-12-20T13:45:58;7.40;55.20
10868;DHT22;62667;48.698;8.762;2023-12-20T13:48:25;7.00;53.50
10868;DHT22;62667;48.698;8.762;2023-12-20T13:50:53;6.90;54.20
10868;DHT22;62667;48.698;8.762;2023-12-20T13:53:20;6.60;56.10
10868;DHT22;62667;48.698;8.762;2023-12-20T13:55:48;6.10;58.60
10868;DHT22;62667;48.698;8.762;2023-12-20T13:58:16;5.50;61.80
10868;DHT22;62667;48.698;8.762;2023-12-20T14:00:43;5.40;63.70
10868;DHT22;62667;48.698;8.762;2023-12-20T14:03:10;5.40;64.20
10868;DHT22;62667;48.698;8.762;2023-12-20T14:05:37;5.30;66.00
10868;DHT22;62667;48.698;8.762;2023-12-20T14:08:06;5.30;66.50
10868;DHT22;62667;48.698;8.762;2023-12-20T14:10:34;5.20;68.20
10868;DHT22;62667;48.698;8.762;2023-12-20T14:13:02;5.20;66.40
10868;DHT22;62667;48.698;8.762;2023-12-20T14:15:31;5.00;67.80
10868;DHT22;62667;48.698;8.762;2023-12-20T14:18:03;5.00;68.50
10868;DHT22;62667;48.698;8.762;2023-12-20T14:20:33;4.90;69.70
10868;DHT22;62667;48.698;8.762;2023-12-20T14:23:03;4.80;69.60
10868;DHT22;62667;48.698;8.762;2023-12-20T14:25:33;4.80;70.90
10868;DHT22;62667;48.698;8.762;2023-12-20T14:28:04;4.80;71.10
10868;DHT22;62667;48.698;8.762;2023-12-20T14:30:32;4.90;71.40
10868;DHT22;62667;48.698;8.762;2023-12-20T14:32:59;5.00;70.30
10868;DHT22;62667;48.698;8.762;2023-12-20T14:35:26;5.00;71.00
10868;DHT22;62667;48.698;8.762;2023-12-20T14:37:53;4.80;90.30
10868;DHT22;62667;48.698;8.762;2023-12-20T14:40:23;4.80;71.70
10868;DHT22;62667;48.698;8.762;2023-12-20T14:42:50;4.80;71.20
10868;DHT22;62667;48.698;8.762;2023-12-20T14:45:19;4.80;71.60
10868;DHT22;62667;48.698;8.762;2023-12-20T14:47:47;4.80;72.30
10868;DHT22;62667;48.698;8.762;2023-12-20T14:50:14;4.80;72.50
10868;DHT22;62667;48.698;8.762;2023-12-20T14:52:44;4.80;72.70
10868;DHT22;62667;48.698;8.762;2023-12-20T14:55:11;4.80;73.50
10868;DHT22;62667;48.698;8.762;2023-12-20T14:57:38;4.80;73.10
10868;DHT22;62667;48.698;8.762;2023-12-20T15:00:07;4.60;75.40
10868;DHT22;62667;48.698;8.762;2023-12-20T15:02:36;4.60;74.90
10868;DHT22;62667;48.698;8.762;2023-12-20T15:05:03;4.40;76.10
10868;DHT22;62667;48.698;8.762;2023-12-20T15:07:31;4.30;77.10
10868;DHT22;62667;48.698;8.762;2023-12-20T15:09:58;4.30;76.90
10868;DHT22;62667;48.698;8.762;2023-12-20T15:12:25;4.50;77.40
10868;DHT22;62667;48.698;8.762;2023-12-20T15:14:52;4.50;77.10
10868;DHT22;62667;48.698;8.762;2023-12-20T15:17:19;4.40;77.80
10868;DHT22;62667;48.698;8.762;2023-12-20T15:19:48;4.40;77.90
10868;DHT22;62667;48.698;8.762;2023-12-20T15:22:15;4.30;79.90
10868;DHT22;62667;48.698;8.762;2023-12-20T15:24:45;4.20;77.90
10868;DHT22;62667;48.698;8.762;2023-12-20T15:27:14;4.30;78.40
10868;DHT22;62667;48.698;8.762;2023-12-20T15:29:41;4.40;78.50
10868;DHT22;62667;48.698;8.762;2023-12-20T15:32:12;4.20;79.30
10868;DHT22;62667;48.698;8.762;2023-12-20T15:34:42;4.10;80.30
10868;DHT22;62667;48.698;8.762;2023-12-20T15:37:09;4.20;79.30
10868;DHT22;62667;48.698;8.762;2023-12-20T15:39:36;4.20;79.20
10868;DHT22;62667;48.698;8.762;2023-12-20T15:42:04;4.20;79.80
10868;DHT22;62667;48.698;8.762;2023-12-20T15:44:31;4.00;80.00
10868;DHT22;62667;48.698;8.762;2023-12-20T15:46:58;4.00;80.80
10868;DHT22;62667;48.698;8.762;2023-12-20T15:49:25;4.00;80.60
10868;DHT22;62667;48.698;8.762;2023-12-20T15:51:52;4.00;80.30
10868;DHT22;62667;48.698;8.762;2023-12-20T15:54:20;3.90;79.70
10868;DHT22;62667;48.698;8.762;2023-12-20T15:56:48;3.90;80.60
10868;DHT22;62667;48.698;8.762;2023-12-20T15:59:15;3.90;80.90
10868;DHT22;62667;48.698;8.762;2023-12-20T16:01:42;3.90;81.10
10868;DHT22;62667;48.698;8.762;2023-12-20T16:04:09;4.00;80.80